sensor_id;sensor_type;location;lat;lon;timestamp;temperature;humidity
20574;DHT22;10445;50.216;7.912;2024-02-26T00:02:19;6.40;1.00
20574;DHT22;10445;50.216;7.912;2024-02-26T00:04:47;6.30;1.00
20574;DHT22;10445;50.216;7.912;2024-02-26T00:07:16;6.20;1.00
20574;DHT22;10445;50.216;7.912;2024-02-26T00:09:44;6.10;1.00
20574;DHT22;10445;50.216;7.912;2024-02-26T00:12:12;6.10;1.00
20574;DHT22;10445;50.216;7.912;2024-02-26T00:14:40;6.00;1.00
20574;DHT22;10445;50.216;7.912;2024-02-26T00:17:09;6.00;1.00
20574;DHT22;10445;50.216;7.912;2024-02-26T00:19:38;5.90;1.90
20574;DHT22;10445;50.216;7.912;2024-02-26T00:22:06;5.90;2.50
20574;DHT22;10445;50.216;7.912;2024-02-26T00:24:34;5.90;1.00
20574;DHT22;10445;50.216;7.912;2024-02-26T00:27:02;5.90;1.70
20574;DHT22;10445;50.216;7.912;2024-02-26T00:29:30;5.90;1.00
20574;DHT22;10445;50.216;7.912;2024-02-26T00:31:59;5.80;2.60
20574;DHT22;10445;50.216;7.912;2024-02-26T00:34:27;5.80;3.50
20574;DHT22;10445;50.216;7.912;2024-02-26T00:36:56;5.70;4.60
20574;DHT22;10445;50.216;7.912;2024-02-26T00:39:24;5.70;5.60
20574;DHT22;10445;50.216;7.912;2024-02-26T00:41:52;5.60;6.70
20574;DHT22;10445;50.216;7.912;2024-02-26T00:44:20;5.50;8.20
20574;DHT22;10445;50.216;7.912;2024-02-26T00:46:48;5.50;10.50
20574;DHT22;10445;50.216;7.912;2024-02-26T00:49:16;5.40;12.00
20574;DHT22;10445;50.216;7.912;2024-02-26T00:51:44;5.40;11.20
20574;DHT22;10445;50.216;7.912;2024-02-26T00:54:14;5.30;11.30
20574;DHT22;10445;50.216;7.912;2024-02-26T00:56:42;5.30;12.70
20574;DHT22;10445;50.216;7.912;2024-02-26T00:59:10;5.30;11.30
20574;DHT22;10445;50.216;7.912;2024-02-26T01:01:38;5.30;12.90
20574;DHT22;10445;50.216;7.912;2024-02-26T01:04:06;5.40;13.40
20574;DHT22;10445;50.216;7.912;2024-02-26T01:06:34;5.40;11.40
20574;DHT22;10445;50.216;7.912;2024-02-26T01:09:02;5.30;13.30
20574;DHT22;10445;50.216;7.912;2024-02-26T01:11:32;5.40;12.30
20574;DHT22;10445;50.216;7.912;2024-02-26T01:14:00;5.40;12.70
20574;DHT22;10445;50.216;7.912;2024-02-26T01:16:28;5.40;9.80
20574;DHT22;10445;50.216;7.912;2024-02-26T01:18:57;5.40;9.10
20574;DHT22;10445;50.216;7.912;2024-02-26T01:21:25;5.60;9.10
20574;DHT22;10445;50.216;7.912;2024-02-26T01:23:56;5.60;4.00
20574;DHT22;10445;50.216;7.912;2024-02-26T01:26:24;6.10;1.00
20574;DHT22;10445;50.216;7.912;2024-02-26T01:28:53;6.50;1.00
20574;DHT22;10445;50.216;7.912;2024-02-26T01:31:22;6.70;1.00
20574;DHT22;10445;50.216;7.912;2024-02-26T01:33:50;6.60;1.00
20574;DHT22;10445;50.216;7.912;2024-02-26T01:36:18;6.30;1.00
20574;DHT22;10445;50.216;7.912;2024-02-26T01:38:47;6.20;1.00
20574;DHT22;10445;50.216;7.912;2024-02-26T01:41:15;6.10;3.90
20574;DHT22;10445;50.216;7.912;2024-02-26T01:43:43;5.90;4.30
20574;DHT22;10445;50.216;7.912;2024-02-26T01:46:14;5.70;4.30
20574;DHT22;10445;50.216;7.912;2024-02-26T01:48:43;5.70;7.90
20574;DHT22;10445;50.216;7.912;2024-02-26T01:51:12;5.70;8.90
20574;DHT22;10445;50.216;7.912;2024-02-26T01:53:42;5.60;9.60
20574;DHT22;10445;50.216;7.912;2024-02-26T01:56:11;5.60;10.30
20574;DHT22;10445;50.216;7.912;2024-02-26T01:58:40;5.40;12.10
20574;DHT22;10445;50.216;7.912;2024-02-26T02:01:08;5.50;11.40
20574;DHT22;10445;50.216;7.912;2024-02-26T02:03:38;5.60;8.00
20574;DHT22;10445;50.216;7.912;2024-02-26T02:06:08;6.00;1.00
20574;DHT22;10445;50.216;7.912;2024-02-26T02:08:37;6.50;1.00
20574;DHT22;10445;50.216;7.912;2024-02-26T02:11:07;6.80;1.00
20574;DHT22;10445;50.216;7.912;2024-02-26T02:13:38;6.90;1.00
20574;DHT22;10445;50.216;7.912;2024-02-26T02:16:06;7.10;1.00
20574;DHT22;10445;50.216;7.912;2024-02-26T02:18:35;7.00;1.00
20574;DHT22;10445;50.216;7.912;2024-02-26T02:21:04;7.10;1.00
20574;DHT22;10445;50.216;7.912;2024-02-26T02:23:32;7.20;1.00
20574;DHT22;10445;50.216;7.912;2024-02-26T02:26:00;7.20;1.00
20574;DHT22;10445;50.216;7.912;2024-02-26T02:28:29;7.10;1.00
20574;DHT22;10445;50.216;7.912;2024-02-26T02:30:57;7.10;1.00
20574;DHT22;10445;50.216;7.912;2024-02-26T02:33:26;7.10;1.00
20574;DHT22;10445;50.216;7.912;2024-02-26T02:35:55;7.10;1.00
20574;DHT22;10445;50.216;7.912;2024-02-26T02:38:26;7.00;1.00
20574;DHT22;10445;50.216;7.912;2024-02-26T02:40:56;7.00;1.00
20574;DHT22;10445;50.216;7.912;2024-02-26T02:43:24;7.00;1.00
20574;DHT22;10445;50.216;7.912;2024-02-26T02:45:52;6.90;1.00
20574;DHT22;10445;50.216;7.912;2024-02-26T02:48:20;6.80;1.00
20574;DHT22;10445;50.216;7.912;2024-02-26T02:50:49;6.70;1.00
20574;DHT22;10445;50.216;7.912;2024-02-26T02:53:17;6.60;1.00
20574;DHT22;10445;50.216;7.912;2024-02-26T02:55:46;6.40;1.00
20574;DHT22;10445;50.216;7.912;2024-02-26T02:58:14;6.40;4.90
20574;DHT22;10445;50.216;7.912;2024-02-26T03:00:42;6.20;10.20
20574;DHT22;10445;50.216;7.912;2024-02-26T03:03:11;6.10;14.60
20574;DHT22;10445;50.216;7.912;2024-02-26T03:05:39;5.90;19.90
20574;DHT22;10445;50.216;7.912;2024-02-26T03:08:07;5.70;28.60
20574;DHT22;10445;50.216;7.912;2024-02-26T03:10:36;5.60;37.90
20574;DHT22;10445;50.216;7.912;2024-02-26T03:13:05;5.50;46.10
20574;DHT22;10445;50.216;7.912;2024-02-26T03:15:33;5.30;52.90
20574;DHT22;10445;50.216;7.912;2024-02-26T03:18:01;5.20;62.10
20574;DHT22;10445;50.216;7.912;2024-02-26T03:20:30;5.10;64.80
20574;DHT22;10445;50.216;7.912;2024-02-26T03:22:57;5.00;68.20
20574;DHT22;10445;50.216;7.912;2024-02-26T03:25:25;4.90;73.70
20574;DHT22;10445;50.216;7.912;2024-02-26T03:27:53;4.80;77.70
20574;DHT22;10445;50.216;7.912;2024-02-26T03:30:23;4.80;78.40
20574;DHT22;10445;50.216;7.912;2024-02-26T03:32:54;4.80;80.00
20574;DHT22;10445;50.216;7.912;2024-02-26T03:35:22;4.80;81.30
20574;DHT22;10445;50.216;7.912;2024-02-26T03:37:50;4.70;82.80
20574;DHT22;10445;50.216;7.912;2024-02-26T03:40:18;4.70;84.00
20574;DHT22;10445;50.216;7.912;2024-02-26T03:42:46;4.60;86.40
20574;DHT22;10445;50.216;7.912;2024-02-26T03:45:14;4.60;87.10
20574;DHT22;10445;50.216;7.912;2024-02-26T03:47:44;4.60;89.00
20574;DHT22;10445;50.216;7.912;2024-02-26T03:50:12;4.60;88.40
20574;DHT22;10445;50.216;7.912;2024-02-26T03:52:40;4.60;90.70
20574;DHT22;10445;50.216;7.912;2024-02-26T03:55:09;4.60;91.70
20574;DHT22;10445;50.216;7.912;2024-02-26T03:57:37;4.60;92.30
20574;DHT22;10445;50.216;7.912;2024-02-26T04:00:06;4.60;92.50
20574;DHT22;10445;50.216;7.912;2024-02-26T04:02:38;4.60;93.20
20574;DHT22;10445;50.216;7.912;2024-02-26T04:05:10;4.60;94.40
20574;DHT22;10445;50.216;7.912;2024-02-26T04:07:39;4.60;94.50
20574;DHT22;10445;50.216;7.912;2024-02-26T04:10:09;4.60;95.90
20574;DHT22;10445;50.216;7.912;2024-02-26T04:12:38;4.60;98.30
20574;DHT22;10445;50.216;7.912;2024-02-26T04:15:08;4.60;99.80
20574;DHT22;10445;50.216;7.912;2024-02-26T04:17:37;4.60;99.90
20574;DHT22;10445;50.216;7.912;2024-02-26T04:20:06;4.60;99.90
20574;DHT22;10445;50.216;7.912;2024-02-26T04:22:36;4.50;99.90
20574;DHT22;10445;50.216;7.912;2024-02-26T04:25:04;4.60;99.90
20574;DHT22;10445;50.216;7.912;2024-02-26T04:27:32;4.50;99.90
20574;DHT22;10445;50.216;7.912;2024-02-26T04:30:00;4.50;99.90
20574;DHT22;10445;50.216;7.912;2024-02-26T04:32:29;4.50;99.90
20574;DHT22;10445;50.216;7.912;2024-02-26T04:34:57;4.50;99.90
20574;DHT22;10445;50.216;7.912;2024-02-26T04:37:25;4.50;99.90
20574;DHT22;10445;50.216;7.912;2024-02-26T04:39:59;4.50;99.90
20574;DHT22;10445;50.216;7.912;2024-02-26T04:42:27;4.50;99.90
20574;DHT22;10445;50.216;7.912;2024-02-26T04:44:56;4.50;99.90
20574;DHT22;10445;50.216;7.912;2024-02-26T04:47:24;4.50;99.90
20574;DHT22;10445;50.216;7.912;2024-02-26T04:49:52;4.60;99.90
20574;DHT22;10445;50.216;7.912;2024-02-26T04:52:20;4.50;99.90
20574;DHT22;10445;50.216;7.912;2024-02-26T04:54:48;4.50;99.90
20574;DHT22;10445;50.216;7.912;2024-02-26T04:57:17;4.50;99.90
20574;DHT22;10445;50.216;7.912;2024-02-26T04:59:46;4.50;99.90
20574;DHT22;10445;50.216;7.912;2024-02-26T05:02:14;4.50;99.90
20574;DHT22;10445;50.216;7.912;2024-02-26T05:04:42;4.50;99.90
20574;DHT22;10445;50.216;7.912;2024-02-26T05:07:10;4.50;99.90
20574;DHT22;10445;50.216;7.912;2024-02-26T05:09:40;4.50;99.90
20574;DHT22;10445;50.216;7.912;2024-02-26T05:12:08;4.50;99.90
20574;DHT22;10445;50.216;7.912;2024-02-26T05:14:39;4.50;99.90
20574;DHT22;10445;50.216;7.912;2024-02-26T05:17:07;4.50;99.90
20574;DHT22;10445;50.216;7.912;2024-02-26T05:19:35;4.50;99.90
20574;DHT22;10445;50.216;7.912;2024-02-26T05:22:03;4.50;99.90
20574;DHT22;10445;50.216;7.912;2024-02-26T05:24:31;4.50;99.90
20574;DHT22;10445;50.216;7.912;2024-02-26T05:27:00;4.50;99.90
20574;DHT22;10445;50.216;7.912;2024-02-26T05:29:28;4.50;99.90
20574;DHT22;10445;50.216;7.912;2024-02-26T05:31:57;4.60;99.90
20574;DHT22;10445;50.216;7.912;2024-02-26T05:34:25;4.50;99.90
20574;DHT22;10445;50.216;7.912;2024-02-26T05:36:54;4.50;99.90
20574;DHT22;10445;50.216;7.912;2024-02-26T05:39:22;4.50;99.90
20574;DHT22;10445;50.216;7.912;2024-02-26T05:41:50;4.50;99.90
20574;DHT22;10445;50.216;7.912;2024-02-26T05:44:18;4.50;99.90
20574;DHT22;10445;50.216;7.912;2024-02-26T05:46:46;4.60;99.90
20574;DHT22;10445;50.216;7.912;2024-02-26T05:49:15;4.50;99.90
20574;DHT22;10445;50.216;7.912;2024-02-26T05:51:43;4.50;99.90
20574;DHT22;10445;50.216;7.912;2024-02-26T05:54:12;4.50;99.90
20574;DHT22;10445;50.216;7.912;2024-02-26T05:56:40;4.50;99.90
20574;DHT22;10445;50.216;7.912;2024-02-26T05:59:09;4.50;99.90
20574;DHT22;10445;50.216;7.912;2024-02-26T06:01:37;4.50;99.90
20574;DHT22;10445;50.216;7.912;2024-02-26T06:04:05;4.50;99.90
20574;DHT22;10445;50.216;7.912;2024-02-26T06:06:34;4.50;99.90
20574;DHT22;10445;50.216;7.912;2024-02-26T06:09:04;4.50;99.90
20574;DHT22;10445;50.216;7.912;2024-02-26T06:11:33;4.50;99.90
20574;DHT22;10445;50.216;7.912;2024-02-26T06:14:01;4.50;99.90
20574;DHT22;10445;50.216;7.912;2024-02-26T06:16:30;4.50;99.90
20574;DHT22;10445;50.216;7.912;2024-02-26T06:18:59;4.50;99.90
20574;DHT22;10445;50.216;7.912;2024-02-26T06:21:27;4.50;99.90
20574;DHT22;10445;50.216;7.912;2024-02-26T06:23:57;4.50;99.90
20574;DHT22;10445;50.216;7.912;2024-02-26T06:26:25;4.60;99.90
20574;DHT22;10445;50.216;7.912;2024-02-26T06:28:55;4.60;99.90
20574;DHT22;10445;50.216;7.912;2024-02-26T06:31:23;4.60;99.90
20574;DHT22;10445;50.216;7.912;2024-02-26T06:33:54;4.60;99.90
20574;DHT22;10445;50.216;7.912;2024-02-26T06:36:22;4.60;99.90
20574;DHT22;10445;50.216;7.912;2024-02-26T06:38:50;4.60;99.90
20574;DHT22;10445;50.216;7.912;2024-02-26T06:41:22;4.60;99.90
20574;DHT22;10445;50.216;7.912;2024-02-26T06:43:54;4.60;99.90
20574;DHT22;10445;50.216;7.912;2024-02-26T06:46:22;4.60;99.90
20574;DHT22;10445;50.216;7.912;2024-02-26T06:48:50;4.60;99.90
20574;DHT22;10445;50.216;7.912;2024-02-26T06:51:21;4.60;99.90
20574;DHT22;10445;50.216;7.912;2024-02-26T06:53:50;4.60;99.90
20574;DHT22;10445;50.216;7.912;2024-02-26T06:56:18;4.60;99.90
20574;DHT22;10445;50.216;7.912;2024-02-26T06:58:47;4.60;99.90
20574;DHT22;10445;50.216;7.912;2024-02-26T07:01:15;4.60;99.90
20574;DHT22;10445;50.216;7.912;2024-02-26T07:03:43;4.60;99.90
20574;DHT22;10445;50.216;7.912;2024-02-26T07:06:11;4.60;99.90
20574;DHT22;10445;50.216;7.912;2024-02-26T07:08:40;4.60;99.90
20574;DHT22;10445;50.216;7.912;2024-02-26T07:11:08;4.60;99.90
20574;DHT22;10445;50.216;7.912;2024-02-26T07:13:36;4.70;99.90
20574;DHT22;10445;50.216;7.912;2024-02-26T07:16:08;4.70;99.90
20574;DHT22;10445;50.216;7.912;2024-02-26T07:18:37;4.70;99.90
20574;DHT22;10445;50.216;7.912;2024-02-26T07:21:05;4.70;99.90
20574;DHT22;10445;50.216;7.912;2024-02-26T07:23:33;4.70;99.90
20574;DHT22;10445;50.216;7.912;2024-02-26T07:26:01;4.70;99.90
20574;DHT22;10445;50.216;7.912;2024-02-26T07:28:29;4.70;99.90
20574;DHT22;10445;50.216;7.912;2024-02-26T07:30:57;4.70;99.90
20574;DHT22;10445;50.216;7.912;2024-02-26T07:33:26;4.70;99.90
20574;DHT22;10445;50.216;7.912;2024-02-26T07:35:55;4.70;99.90
20574;DHT22;10445;50.216;7.912;2024-02-26T07:38:23;4.70;99.90
20574;DHT22;10445;50.216;7.912;2024-02-26T07:41:07;4.70;99.90
20574;DHT22;10445;50.216;7.912;2024-02-26T07:43:35;4.70;99.90
20574;DHT22;10445;50.216;7.912;2024-02-26T07:46:04;4.70;99.90
20574;DHT22;10445;50.216;7.912;2024-02-26T07:48:33;4.70;99.90
20574;DHT22;10445;50.216;7.912;2024-02-26T07:51:01;4.70;99.90
20574;DHT22;10445;50.216;7.912;2024-02-26T07:53:31;4.70;99.90
20574;DHT22;10445;50.216;7.912;2024-02-26T07:55:59;4.70;99.90
20574;DHT22;10445;50.216;7.912;2024-02-26T07:58:27;4.70;99.90
20574;DHT22;10445;50.216;7.912;2024-02-26T08:00:55;4.70;99.90
20574;DHT22;10445;50.216;7.912;2024-02-26T08:03:23;4.70;99.90
20574;DHT22;10445;50.216;7.912;2024-02-26T08:05:52;4.80;99.90
20574;DHT22;10445;50.216;7.912;2024-02-26T08:08:21;4.70;99.90
20574;DHT22;10445;50.216;7.912;2024-02-26T08:10:49;4.80;99.90
20574;DHT22;10445;50.216;7.912;2024-02-26T08:13:17;4.80;99.90
20574;DHT22;10445;50.216;7.912;2024-02-26T08:15:45;4.80;99.90
20574;DHT22;10445;50.216;7.912;2024-02-26T08:18:13;4.90;99.90
20574;DHT22;10445;50.216;7.912;2024-02-26T08:20:42;4.90;99.90
20574;DHT22;10445;50.216;7.912;2024-02-26T08:23:12;4.80;99.90
20574;DHT22;10445;50.216;7.912;2024-02-26T08:25:40;4.80;99.90
20574;DHT22;10445;50.216;7.912;2024-02-26T08:28:08;4.80;99.90
20574;DHT22;10445;50.216;7.912;2024-02-26T08:30:37;4.80;99.90
20574;DHT22;10445;50.216;7.912;2024-02-26T08:33:06;4.90;99.90
20574;DHT22;10445;50.216;7.912;2024-02-26T08:35:34;4.90;99.90
20574;DHT22;10445;50.216;7.912;2024-02-26T08:38:02;4.90;99.90
20574;DHT22;10445;50.216;7.912;2024-02-26T08:40:32;4.90;99.90
20574;DHT22;10445;50.216;7.912;2024-02-26T08:43:00;4.90;99.90
20574;DHT22;10445;50.216;7.912;2024-02-26T08:45:28;4.90;99.90
20574;DHT22;10445;50.216;7.912;2024-02-26T08:47:56;5.00;99.90
20574;DHT22;10445;50.216;7.912;2024-02-26T08:50:26;5.00;99.90
20574;DHT22;10445;50.216;7.912;2024-02-26T08:52:54;5.00;99.90
20574;DHT22;10445;50.216;7.912;2024-02-26T08:55:22;5.10;99.90
20574;DHT22;10445;50.216;7.912;2024-02-26T08:57:52;5.10;99.90
20574;DHT22;10445;50.216;7.912;2024-02-26T09:00:20;5.10;99.90
20574;DHT22;10445;50.216;7.912;2024-02-26T09:02:48;5.10;99.90
20574;DHT22;10445;50.216;7.912;2024-02-26T09:05:17;5.20;99.90
20574;DHT22;10445;50.216;7.912;2024-02-26T09:07:45;5.10;99.90
20574;DHT22;10445;50.216;7.912;2024-02-26T09:10:14;5.20;99.90
20574;DHT22;10445;50.216;7.912;2024-02-26T09:12:42;5.20;99.90
20574;DHT22;10445;50.216;7.912;2024-02-26T09:15:11;5.20;99.90
20574;DHT22;10445;50.216;7.912;2024-02-26T09:17:39;5.20;99.90
20574;DHT22;10445;50.216;7.912;2024-02-26T09:20:08;5.30;99.90
20574;DHT22;10445;50.216;7.912;2024-02-26T09:22:37;5.30;99.90
20574;DHT22;10445;50.216;7.912;2024-02-26T09:25:06;5.30;99.90
20574;DHT22;10445;50.216;7.912;2024-02-26T09:27:34;5.40;99.90
20574;DHT22;10445;50.216;7.912;2024-02-26T09:30:07;5.50;99.90
20574;DHT22;10445;50.216;7.912;2024-02-26T09:32:36;5.50;99.90
20574;DHT22;10445;50.216;7.912;2024-02-26T09:35:05;5.50;99.90
20574;DHT22;10445;50.216;7.912;2024-02-26T09:37:33;5.50;99.90
20574;DHT22;10445;50.216;7.912;2024-02-26T09:40:04;5.60;99.90
20574;DHT22;10445;50.216;7.912;2024-02-26T09:42:34;5.70;99.90
20574;DHT22;10445;50.216;7.912;2024-02-26T09:45:06;5.50;99.90
20574;DHT22;10445;50.216;7.912;2024-02-26T09:47:37;5.50;99.90
20574;DHT22;10445;50.216;7.912;2024-02-26T09:50:08;5.50;99.90
20574;DHT22;10445;50.216;7.912;2024-02-26T09:52:41;5.50;99.90
20574;DHT22;10445;50.216;7.912;2024-02-26T09:55:09;5.60;99.90
20574;DHT22;10445;50.216;7.912;2024-02-26T09:57:38;5.60;99.90
20574;DHT22;10445;50.216;7.912;2024-02-26T10:00:10;5.70;99.90
20574;DHT22;10445;50.216;7.912;2024-02-26T10:02:42;5.70;99.90
20574;DHT22;10445;50.216;7.912;2024-02-26T10:05:12;5.70;99.90
20574;DHT22;10445;50.216;7.912;2024-02-26T10:07:42;5.70;99.90
20574;DHT22;10445;50.216;7.912;2024-02-26T10:10:11;5.70;99.90
20574;DHT22;10445;50.216;7.912;2024-02-26T10:12:40;5.70;99.90
20574;DHT22;10445;50.216;7.912;2024-02-26T10:15:09;5.80;99.90
20574;DHT22;10445;50.216;7.912;2024-02-26T10:17:38;5.90;99.90
20574;DHT22;10445;50.216;7.912;2024-02-26T10:20:15;6.10;99.90
20574;DHT22;10445;50.216;7.912;2024-02-26T10:22:44;6.20;99.90
20574;DHT22;10445;50.216;7.912;2024-02-26T10:25:13;6.20;99.90
20574;DHT22;10445;50.216;7.912;2024-02-26T10:27:42;6.30;99.90
20574;DHT22;10445;50.216;7.912;2024-02-26T10:30:18;6.40;99.90
20574;DHT22;10445;50.216;7.912;2024-02-26T10:32:48;6.30;99.90
20574;DHT22;10445;50.216;7.912;2024-02-26T10:35:18;6.30;99.90
20574;DHT22;10445;50.216;7.912;2024-02-26T10:37:50;6.20;99.90
20574;DHT22;10445;50.216;7.912;2024-02-26T10:40:18;6.20;99.90
20574;DHT22;10445;50.216;7.912;2024-02-26T10:42:46;6.30;99.90
20574;DHT22;10445;50.216;7.912;2024-02-26T10:45:14;6.30;99.90
20574;DHT22;10445;50.216;7.912;2024-02-26T10:47:42;6.30;99.90
20574;DHT22;10445;50.216;7.912;2024-02-26T10:50:13;6.40;99.90
20574;DHT22;10445;50.216;7.912;2024-02-26T10:52:43;6.40;99.90
20574;DHT22;10445;50.216;7.912;2024-02-26T10:55:15;6.50;99.90
20574;DHT22;10445;50.216;7.912;2024-02-26T10:57:46;6.50;99.90
20574;DHT22;10445;50.216;7.912;2024-02-26T11:00:16;6.60;99.90
20574;DHT22;10445;50.216;7.912;2024-02-26T11:02:45;6.60;99.90
20574;DHT22;10445;50.216;7.912;2024-02-26T11:05:14;6.60;99.90
20574;DHT22;10445;50.216;7.912;2024-02-26T11:07:44;6.60;99.90
20574;DHT22;10445;50.216;7.912;2024-02-26T11:10:14;6.60;99.90
20574;DHT22;10445;50.216;7.912;2024-02-26T11:12:43;6.80;99.90
20574;DHT22;10445;50.216;7.912;2024-02-26T11:15:12;6.70;99.90
20574;DHT22;10445;50.216;7.912;2024-02-26T11:17:41;6.70;99.90
20574;DHT22;10445;50.216;7.912;2024-02-26T11:20:11;6.70;99.90
20574;DHT22;10445;50.216;7.912;2024-02-26T11:22:41;6.70;99.90
20574;DHT22;10445;50.216;7.912;2024-02-26T11:25:10;6.70;99.90
20574;DHT22;10445;50.216;7.912;2024-02-26T11:27:42;6.80;99.90
20574;DHT22;10445;50.216;7.912;2024-02-26T11:30:12;6.80;99.90
20574;DHT22;10445;50.216;7.912;2024-02-26T11:32:44;6.80;99.90
20574;DHT22;10445;50.216;7.912;2024-02-26T11:35:13;6.80;99.90
20574;DHT22;10445;50.216;7.912;2024-02-26T11:37:52;6.80;99.90
20574;DHT22;10445;50.216;7.912;2024-02-26T11:40:23;6.70;99.90
20574;DHT22;10445;50.216;7.912;2024-02-26T11:42:53;6.70;99.90
20574;DHT22;10445;50.216;7.912;2024-02-26T11:45:49;6.50;99.90
20574;DHT22;10445;50.216;7.912;2024-02-26T11:48:23;6.40;99.90
20574;DHT22;10445;50.216;7.912;2024-02-26T11:50:53;6.50;99.90
20574;DHT22;10445;50.216;7.912;2024-02-26T11:53:23;6.40;99.90
20574;DHT22;10445;50.216;7.912;2024-02-26T11:56:22;6.40;99.90
20574;DHT22;10445;50.216;7.912;2024-02-26T11:59:04;6.50;99.90
20574;DHT22;10445;50.216;7.912;2024-02-26T12:01:41;6.40;99.90
20574;DHT22;10445;50.216;7.912;2024-02-26T12:04:12;6.30;99.90
20574;DHT22;10445;50.216;7.912;2024-02-26T12:06:47;6.30;99.90
20574;DHT22;10445;50.216;7.912;2024-02-26T12:09:35;6.30;99.90
20574;DHT22;10445;50.216;7.912;2024-02-26T12:12:06;6.40;99.90
20574;DHT22;10445;50.216;7.912;2024-02-26T12:14:38;6.40;99.90
20574;DHT22;10445;50.216;7.912;2024-02-26T12:17:07;6.40;99.90
20574;DHT22;10445;50.216;7.912;2024-02-26T12:19:35;6.30;99.90
20574;DHT22;10445;50.216;7.912;2024-02-26T12:22:13;6.40;99.90
20574;DHT22;10445;50.216;7.912;2024-02-26T12:24:42;6.50;99.90
20574;DHT22;10445;50.216;7.912;2024-02-26T12:27:11;6.50;99.90
20574;DHT22;10445;50.216;7.912;2024-02-26T12:29:40;6.60;99.90
20574;DHT22;10445;50.216;7.912;2024-02-26T12:32:08;6.70;99.90
20574;DHT22;10445;50.216;7.912;2024-02-26T12:34:37;6.80;99.90
20574;DHT22;10445;50.216;7.912;2024-02-26T12:37:06;6.90;99.90
20574;DHT22;10445;50.216;7.912;2024-02-26T12:39:35;7.00;99.90
20574;DHT22;10445;50.216;7.912;2024-02-26T12:42:05;7.20;99.90
20574;DHT22;10445;50.216;7.912;2024-02-26T12:44:35;7.30;99.90
20574;DHT22;10445;50.216;7.912;2024-02-26T12:47:04;7.40;99.90
20574;DHT22;10445;50.216;7.912;2024-02-26T12:49:32;7.50;99.90
20574;DHT22;10445;50.216;7.912;2024-02-26T12:52:00;7.50;99.90
20574;DHT22;10445;50.216;7.912;2024-02-26T12:54:30;7.40;99.90
20574;DHT22;10445;50.216;7.912;2024-02-26T12:57:00;7.40;99.90
20574;DHT22;10445;50.216;7.912;2024-02-26T12:59:30;7.30;99.90
20574;DHT22;10445;50.216;7.912;2024-02-26T13:02:00;7.30;99.90
20574;DHT22;10445;50.216;7.912;2024-02-26T13:04:33;7.40;99.90
20574;DHT22;10445;50.216;7.912;2024-02-26T13:07:03;7.40;99.90
20574;DHT22;10445;50.216;7.912;2024-02-26T13:09:33;7.40;99.90
20574;DHT22;10445;50.216;7.912;2024-02-26T13:12:04;7.30;99.90
20574;DHT22;10445;50.216;7.912;2024-02-26T13:14:32;7.40;99.90
20574;DHT22;10445;50.216;7.912;2024-02-26T13:17:03;7.40;99.90
20574;DHT22;10445;50.216;7.912;2024-02-26T13:19:31;7.40;99.90
20574;DHT22;10445;50.216;7.912;2024-02-26T13:22:04;7.60;99.90
20574;DHT22;10445;50.216;7.912;2024-02-26T13:24:33;7.60;99.90
20574;DHT22;10445;50.216;7.912;2024-02-26T13:27:01;7.60;99.90
20574;DHT22;10445;50.216;7.912;2024-02-26T13:29:30;7.70;99.90
20574;DHT22;10445;50.216;7.912;2024-02-26T13:31:58;7.70;99.90
20574;DHT22;10445;50.216;7.912;2024-02-26T13:34:29;7.90;99.90
20574;DHT22;10445;50.216;7.912;2024-02-26T13:36:58;7.90;99.90
20574;DHT22;10445;50.216;7.912;2024-02-26T13:39:27;7.80;99.90
20574;DHT22;10445;50.216;7.912;2024-02-26T13:41:55;7.90;99.90
20574;DHT22;10445;50.216;7.912;2024-02-26T13:44:24;7.90;99.90
20574;DHT22;10445;50.216;7.912;2024-02-26T13:46:52;7.90;99.90
20574;DHT22;10445;50.216;7.912;2024-02-26T13:49:20;7.80;99.70
20574;DHT22;10445;50.216;7.912;2024-02-26T13:51:49;7.60;99.90
20574;DHT22;10445;50.216;7.912;2024-02-26T13:54:18;7.50;99.90
20574;DHT22;10445;50.216;7.912;2024-02-26T13:56:46;7.60;99.90
20574;DHT22;10445;50.216;7.912;2024-02-26T13:59:15;7.60;99.90
20574;DHT22;10445;50.216;7.912;2024-02-26T14:01:43;7.50;99.90
20574;DHT22;10445;50.216;7.912;2024-02-26T14:04:11;7.50;99.90
20574;DHT22;10445;50.216;7.912;2024-02-26T14:06:40;7.60;99.90
20574;DHT22;10445;50.216;7.912;2024-02-26T14:09:10;7.60;99.90
20574;DHT22;10445;50.216;7.912;2024-02-26T14:11:38;7.60;99.90
20574;DHT22;10445;50.216;7.912;2024-02-26T14:14:07;7.60;99.90
20574;DHT22;10445;50.216;7.912;2024-02-26T14:16:36;7.60;99.90
20574;DHT22;10445;50.216;7.912;2024-02-26T14:19:04;7.60;99.90
20574;DHT22;10445;50.216;7.912;2024-02-26T14:21:32;7.60;99.90
20574;DHT22;10445;50.216;7.912;2024-02-26T14:24:00;7.70;99.90
20574;DHT22;10445;50.216;7.912;2024-02-26T14:26:30;7.70;99.90
20574;DHT22;10445;50.216;7.912;2024-02-26T14:28:58;7.80;99.90
20574;DHT22;10445;50.216;7.912;2024-02-26T14:31:26;7.80;99.90
20574;DHT22;10445;50.216;7.912;2024-02-26T14:33:55;7.80;99.90
20574;DHT22;10445;50.216;7.912;2024-02-26T14:36:24;7.90;99.90
20574;DHT22;10445;50.216;7.912;2024-02-26T14:38:52;8.00;99.90
20574;DHT22;10445;50.216;7.912;2024-02-26T14:41:20;8.00;99.80
20574;DHT22;10445;50.216;7.912;2024-02-26T14:43:50;8.00;99.40
20574;DHT22;10445;50.216;7.912;2024-02-26T14:46:18;7.80;97.30
20574;DHT22;10445;50.216;7.912;2024-02-26T14:48:46;7.70;98.50
20574;DHT22;10445;50.216;7.912;2024-02-26T14:51:14;7.60;99.90
20574;DHT22;10445;50.216;7.912;2024-02-26T14:53:42;7.60;99.90
20574;DHT22;10445;50.216;7.912;2024-02-26T14:56:11;7.60;99.90
20574;DHT22;10445;50.216;7.912;2024-02-26T14:58:39;7.60;99.90
20574;DHT22;10445;50.216;7.912;2024-02-26T15:01:08;7.60;99.90
20574;DHT22;10445;50.216;7.912;2024-02-26T15:03:36;7.50;99.90
20574;DHT22;10445;50.216;7.912;2024-02-26T15:06:05;7.50;99.90
20574;DHT22;10445;50.216;7.912;2024-02-26T15:08:33;7.40;99.90
20574;DHT22;10445;50.216;7.912;2024-02-26T15:11:02;7.40;99.90
20574;DHT22;10445;50.216;7.912;2024-02-26T15:13:30;7.50;99.90
20574;DHT22;10445;50.216;7.912;2024-02-26T15:15:58;7.50;99.90
20574;DHT22;10445;50.216;7.912;2024-02-26T15:18:28;7.60;99.90
20574;DHT22;10445;50.216;7.912;2024-02-26T15:20:57;7.60;99.90
20574;DHT22;10445;50.216;7.912;2024-02-26T15:23:25;7.70;99.90
20574;DHT22;10445;50.216;7.912;2024-02-26T15:25:54;7.80;99.90
20574;DHT22;10445;50.216;7.912;2024-02-26T15:28:22;7.80;99.90
20574;DHT22;10445;50.216;7.912;2024-02-26T15:30:54;7.80;99.90
20574;DHT22;10445;50.216;7.912;2024-02-26T15:33:22;7.80;99.90
20574;DHT22;10445;50.216;7.912;2024-02-26T15:35:53;7.80;99.80
20574;DHT22;10445;50.216;7.912;2024-02-26T15:38:21;7.80;99.30
20574;DHT22;10445;50.216;7.912;2024-02-26T15:40:49;7.70;99.90
20574;DHT22;10445;50.216;7.912;2024-02-26T15:43:17;7.60;99.90
20574;DHT22;10445;50.216;7.912;2024-02-26T15:45:48;7.60;99.90
20574;DHT22;10445;50.216;7.912;2024-02-26T15:48:16;7.50;99.90
20574;DHT22;10445;50.216;7.912;2024-02-26T15:50:44;7.50;99.90
20574;DHT22;10445;50.216;7.912;2024-02-26T15:53:13;7.50;99.90
20574;DHT22;10445;50.216;7.912;2024-02-26T15:55:41;7.40;99.90
20574;DHT22;10445;50.216;7.912;2024-02-26T15:58:09;7.40;99.90
20574;DHT22;10445;50.216;7.912;2024-02-26T16:00:41;7.30;99.90